sensor_id;sensor_type;location;lat;lon;timestamp;P1;durP1;ratioP1;P2;durP2;ratioP2
77222;SDS011;66218;48.928;9.140;2023-04-10T00:04:41;4.87;;;3.07;;
77222;SDS011;66218;48.928;9.140;2023-04-10T00:07:07;6.88;;;3.58;;
77222;SDS011;66218;48.928;9.140;2023-04-10T00:09:32;6.97;;;3.03;;
77222;SDS011;66218;48.928;9.140;2023-04-10T00:11:57;6.47;;;2.80;;
77222;SDS011;66218;48.928;9.140;2023-04-10T00:14:23;7.22;;;3.88;;
77222;SDS011;66218;48.928;9.140;2023-04-10T00:16:49;7.78;;;3.67;;
77222;SDS011;66218;48.928;9.140;2023-04-10T00:19:15;6.88;;;3.38;;
77222;SDS011;66218;48.928;9.140;2023-04-10T00:21:40;4.32;;;3.33;;
77222;SDS011;66218;48.928;9.140;2023-04-10T00:24:06;7.85;;;4.45;;
77222;SDS011;66218;48.928;9.140;2023-04-10T00:26:32;8.85;;;3.72;;
77222;SDS011;66218;48.928;9.140;2023-04-10T00:28:57;8.57;;;3.45;;
77222;SDS011;66218;48.928;9.140;2023-04-10T00:31:23;10.00;;;3.30;;
77222;SDS011;66218;48.928;9.140;2023-04-10T00:33:48;6.85;;;3.42;;
77222;SDS011;66218;48.928;9.140;2023-04-10T00:36:13;8.30;;;3.58;;
77222;SDS011;66218;48.928;9.140;2023-04-10T00:38:39;6.35;;;2.70;;
77222;SDS011;66218;48.928;9.140;2023-04-10T00:41:05;6.95;;;3.00;;
77222;SDS011;66218;48.928;9.140;2023-04-10T00:43:31;7.45;;;3.00;;
77222;SDS011;66218;48.928;9.140;2023-04-10T00:45:56;6.75;;;3.30;;
77222;SDS011;66218;48.928;9.140;2023-04-10T00:48:21;5.47;;;2.80;;
77222;SDS011;66218;48.928;9.140;2023-04-10T00:50:47;7.82;;;3.65;;
77222;SDS011;66218;48.928;9.140;2023-04-10T00:53:12;9.23;;;3.85;;
77222;SDS011;66218;48.928;9.140;2023-04-10T00:55:37;5.88;;;4.10;;
77222;SDS011;66218;48.928;9.140;2023-04-10T00:58:03;9.75;;;4.80;;
77222;SDS011;66218;48.928;9.140;2023-04-10T01:00:28;9.52;;;3.90;;
77222;SDS011;66218;48.928;9.140;2023-04-10T01:02:53;8.50;;;3.95;;
77222;SDS011;66218;48.928;9.140;2023-04-10T01:05:19;3.42;;;1.85;;
77222;SDS011;66218;48.928;9.140;2023-04-10T01:10:28;7.28;;;3.55;;
77222;SDS011;66218;48.928;9.140;2023-04-10T01:15:48;6.05;;;2.88;;
77222;SDS011;66218;48.928;9.140;2023-04-10T01:18:23;6.95;;;2.78;;
77222;SDS011;66218;48.928;9.140;2023-04-10T01:20:55;4.97;;;3.33;;
77222;SDS011;66218;48.928;9.140;2023-04-10T01:23:40;6.72;;;3.42;;
77222;SDS011;66218;48.928;9.140;2023-04-10T01:26:17;4.68;;;2.53;;
77222;SDS011;66218;48.928;9.140;2023-04-10T01:31:51;6.30;;;2.50;;
77222;SDS011;66218;48.928;9.140;2023-04-10T01:34:22;10.75;;;3.50;;
77222;SDS011;66218;48.928;9.140;2023-04-10T01:36:54;5.68;;;2.97;;
77222;SDS011;66218;48.928;9.140;2023-04-10T01:39:23;5.88;;;2.63;;
77222;SDS011;66218;48.928;9.140;2023-04-10T01:41:52;9.15;;;4.32;;
77222;SDS011;66218;48.928;9.140;2023-04-10T01:44:22;8.73;;;3.47;;
77222;SDS011;66218;48.928;9.140;2023-04-10T01:46:52;8.02;;;3.55;;
77222;SDS011;66218;48.928;9.140;2023-04-10T01:49:19;7.75;;;3.20;;
77222;SDS011;66218;48.928;9.140;2023-04-10T01:51:45;7.80;;;3.58;;
77222;SDS011;66218;48.928;9.140;2023-04-10T01:54:12;8.35;;;3.60;;
77222;SDS011;66218;48.928;9.140;2023-04-10T01:56:38;10.15;;;4.40;;
77222;SDS011;66218;48.928;9.140;2023-04-10T01:59:04;7.65;;;3.20;;
77222;SDS011;66218;48.928;9.140;2023-04-10T02:01:30;6.13;;;2.80;;
77222;SDS011;66218;48.928;9.140;2023-04-10T02:03:56;4.15;;;2.75;;
77222;SDS011;66218;48.928;9.140;2023-04-10T02:06:33;3.40;;;2.00;;
77222;SDS011;66218;48.928;9.140;2023-04-10T02:09:13;7.63;;;3.28;;
77222;SDS011;66218;48.928;9.140;2023-04-10T02:12:01;8.27;;;2.75;;
77222;SDS011;66218;48.928;9.140;2023-04-10T02:14:30;6.80;;;2.72;;
77222;SDS011;66218;48.928;9.140;2023-04-10T02:16:57;7.25;;;3.58;;
77222;SDS011;66218;48.928;9.140;2023-04-10T02:19:26;4.07;;;2.65;;
77222;SDS011;66218;48.928;9.140;2023-04-10T02:21:51;7.65;;;3.85;;
77222;SDS011;66218;48.928;9.140;2023-04-10T02:24:18;7.80;;;3.58;;
77222;SDS011;66218;48.928;9.140;2023-04-10T02:26:51;6.30;;;3.45;;
77222;SDS011;66218;48.928;9.140;2023-04-10T02:29:17;8.20;;;3.20;;
77222;SDS011;66218;48.928;9.140;2023-04-10T02:31:44;8.60;;;3.22;;
77222;SDS011;66218;48.928;9.140;2023-04-10T02:34:11;9.68;;;3.00;;
77222;SDS011;66218;48.928;9.140;2023-04-10T02:36:37;6.85;;;3.08;;
77222;SDS011;66218;48.928;9.140;2023-04-10T02:39:03;6.18;;;2.63;;
77222;SDS011;66218;48.928;9.140;2023-04-10T02:41:29;6.75;;;2.67;;
77222;SDS011;66218;48.928;9.140;2023-04-10T02:43:54;7.43;;;4.20;;
77222;SDS011;66218;48.928;9.140;2023-04-10T02:46:20;7.80;;;3.05;;
77222;SDS011;66218;48.928;9.140;2023-04-10T02:48:45;6.53;;;2.78;;
77222;SDS011;66218;48.928;9.140;2023-04-10T02:51:11;4.43;;;2.33;;
77222;SDS011;66218;48.928;9.140;2023-04-10T02:53:37;6.35;;;2.72;;
77222;SDS011;66218;48.928;9.140;2023-04-10T02:56:02;4.53;;;2.75;;
77222;SDS011;66218;48.928;9.140;2023-04-10T02:58:30;6.68;;;3.90;;
77222;SDS011;66218;48.928;9.140;2023-04-10T03:00:55;7.93;;;3.63;;
77222;SDS011;66218;48.928;9.140;2023-04-10T03:03:24;8.00;;;3.47;;
77222;SDS011;66218;48.928;9.140;2023-04-10T03:05:50;5.38;;;2.65;;
77222;SDS011;66218;48.928;9.140;2023-04-10T03:08:15;5.35;;;2.47;;
77222;SDS011;66218;48.928;9.140;2023-04-10T03:10:44;6.22;;;2.90;;
77222;SDS011;66218;48.928;9.140;2023-04-10T03:13:12;4.90;;;3.03;;
77222;SDS011;66218;48.928;9.140;2023-04-10T03:15:38;6.30;;;3.13;;
77222;SDS011;66218;48.928;9.140;2023-04-10T03:18:04;9.38;;;4.32;;
77222;SDS011;66218;48.928;9.140;2023-04-10T03:20:34;5.97;;;3.30;;
77222;SDS011;66218;48.928;9.140;2023-04-10T03:23:01;4.45;;;3.08;;
77222;SDS011;66218;48.928;9.140;2023-04-10T03:25:27;9.60;;;3.28;;
77222;SDS011;66218;48.928;9.140;2023-04-10T03:27:52;5.22;;;2.35;;
77222;SDS011;66218;48.928;9.140;2023-04-10T03:30:18;4.95;;;3.25;;
77222;SDS011;66218;48.928;9.140;2023-04-10T03:32:43;6.85;;;2.78;;
77222;SDS011;66218;48.928;9.140;2023-04-10T03:35:09;9.10;;;3.47;;
77222;SDS011;66218;48.928;9.140;2023-04-10T03:37:34;6.13;;;2.92;;
77222;SDS011;66218;48.928;9.140;2023-04-10T03:40:00;5.38;;;3.28;;
77222;SDS011;66218;48.928;9.140;2023-04-10T03:42:25;7.35;;;4.68;;
77222;SDS011;66218;48.928;9.140;2023-04-10T03:44:51;5.18;;;2.78;;
77222;SDS011;66218;48.928;9.140;2023-04-10T03:47:16;5.85;;;2.72;;
77222;SDS011;66218;48.928;9.140;2023-04-10T03:49:42;4.47;;;2.08;;
77222;SDS011;66218;48.928;9.140;2023-04-10T03:52:07;9.35;;;5.07;;
77222;SDS011;66218;48.928;9.140;2023-04-10T03:54:32;5.90;;;3.15;;
77222;SDS011;66218;48.928;9.140;2023-04-10T03:56:58;5.80;;;2.83;;
77222;SDS011;66218;48.928;9.140;2023-04-10T03:59:23;3.25;;;1.70;;
77222;SDS011;66218;48.928;9.140;2023-04-10T04:01:49;5.25;;;2.97;;
77222;SDS011;66218;48.928;9.140;2023-04-10T04:04:14;4.03;;;2.58;;
77222;SDS011;66218;48.928;9.140;2023-04-10T04:06:39;5.75;;;2.63;;
77222;SDS011;66218;48.928;9.140;2023-04-10T04:09:05;6.15;;;3.17;;
77222;SDS011;66218;48.928;9.140;2023-04-10T04:11:30;9.60;;;3.90;;
77222;SDS011;66218;48.928;9.140;2023-04-10T04:13:56;10.93;;;3.60;;
77222;SDS011;66218;48.928;9.140;2023-04-10T04:16:21;5.80;;;2.72;;
77222;SDS011;66218;48.928;9.140;2023-04-10T04:18:46;3.90;;;2.95;;
77222;SDS011;66218;48.928;9.140;2023-04-10T04:21:12;6.00;;;3.60;;
77222;SDS011;66218;48.928;9.140;2023-04-10T04:23:38;10.57;;;5.22;;
77222;SDS011;66218;48.928;9.140;2023-04-10T04:26:03;4.05;;;3.00;;
77222;SDS011;66218;48.928;9.140;2023-04-10T04:28:29;9.73;;;3.15;;
77222;SDS011;66218;48.928;9.140;2023-04-10T04:30:54;5.28;;;3.20;;
77222;SDS011;66218;48.928;9.140;2023-04-10T04:33:19;6.03;;;3.80;;
77222;SDS011;66218;48.928;9.140;2023-04-10T04:35:45;6.50;;;3.15;;
77222;SDS011;66218;48.928;9.140;2023-04-10T04:38:10;3.58;;;2.50;;
77222;SDS011;66218;48.928;9.140;2023-04-10T04:40:35;4.68;;;2.22;;
77222;SDS011;66218;48.928;9.140;2023-04-10T04:43:00;6.47;;;3.42;;
77222;SDS011;66218;48.928;9.140;2023-04-10T04:45:26;7.75;;;3.10;;
77222;SDS011;66218;48.928;9.140;2023-04-10T04:47:51;6.88;;;2.35;;
77222;SDS011;66218;48.928;9.140;2023-04-10T04:50:16;7.43;;;2.67;;
77222;SDS011;66218;48.928;9.140;2023-04-10T04:52:42;3.65;;;1.70;;
77222;SDS011;66218;48.928;9.140;2023-04-10T04:55:08;4.95;;;2.42;;
77222;SDS011;66218;48.928;9.140;2023-04-10T04:57:33;5.97;;;3.92;;
77222;SDS011;66218;48.928;9.140;2023-04-10T04:59:59;5.03;;;2.78;;
77222;SDS011;66218;48.928;9.140;2023-04-10T05:02:24;7.35;;;3.33;;
77222;SDS011;66218;48.928;9.140;2023-04-10T05:04:49;7.05;;;3.20;;
77222;SDS011;66218;48.928;9.140;2023-04-10T05:07:15;5.40;;;2.67;;
77222;SDS011;66218;48.928;9.140;2023-04-10T05:09:40;4.95;;;3.90;;
77222;SDS011;66218;48.928;9.140;2023-04-10T05:12:06;6.72;;;3.40;;
77222;SDS011;66218;48.928;9.140;2023-04-10T05:14:31;5.20;;;3.65;;
77222;SDS011;66218;48.928;9.140;2023-04-10T05:16:56;6.60;;;3.20;;
77222;SDS011;66218;48.928;9.140;2023-04-10T05:19:21;6.85;;;3.47;;
77222;SDS011;66218;48.928;9.140;2023-04-10T05:21:47;6.03;;;3.15;;
77222;SDS011;66218;48.928;9.140;2023-04-10T05:24:12;5.38;;;3.53;;
77222;SDS011;66218;48.928;9.140;2023-04-10T05:26:37;4.05;;;2.80;;
77222;SDS011;66218;48.928;9.140;2023-04-10T05:29:03;5.40;;;2.80;;
77222;SDS011;66218;48.928;9.140;2023-04-10T05:31:28;5.18;;;2.75;;
77222;SDS011;66218;48.928;9.140;2023-04-10T05:33:53;7.22;;;3.22;;
77222;SDS011;66218;48.928;9.140;2023-04-10T05:36:19;6.03;;;2.90;;
77222;SDS011;66218;48.928;9.140;2023-04-10T05:38:44;5.32;;;2.80;;
77222;SDS011;66218;48.928;9.140;2023-04-10T05:41:09;6.38;;;3.15;;
77222;SDS011;66218;48.928;9.140;2023-04-10T05:43:35;4.80;;;3.00;;
77222;SDS011;66218;48.928;9.140;2023-04-10T05:46:00;5.80;;;2.67;;
77222;SDS011;66218;48.928;9.140;2023-04-10T05:48:25;5.95;;;3.55;;
77222;SDS011;66218;48.928;9.140;2023-04-10T05:53:18;5.23;;;2.30;;
77222;SDS011;66218;48.928;9.140;2023-04-10T05:55:44;6.35;;;2.75;;
77222;SDS011;66218;48.928;9.140;2023-04-10T05:58:09;4.30;;;2.28;;
77222;SDS011;66218;48.928;9.140;2023-04-10T06:00:34;6.32;;;2.53;;
77222;SDS011;66218;48.928;9.140;2023-04-10T06:03:01;3.75;;;2.30;;
77222;SDS011;66218;48.928;9.140;2023-04-10T06:05:27;7.90;;;3.67;;
77222;SDS011;66218;48.928;9.140;2023-04-10T06:08:02;5.72;;;2.97;;
77222;SDS011;66218;48.928;9.140;2023-04-10T06:10:31;5.03;;;2.28;;
77222;SDS011;66218;48.928;9.140;2023-04-10T06:12:56;8.35;;;3.85;;
77222;SDS011;66218;48.928;9.140;2023-04-10T06:15:22;6.40;;;2.90;;
77222;SDS011;66218;48.928;9.140;2023-04-10T06:17:50;9.02;;;3.08;;
77222;SDS011;66218;48.928;9.140;2023-04-10T06:20:15;7.90;;;3.10;;
77222;SDS011;66218;48.928;9.140;2023-04-10T06:22:41;8.65;;;3.38;;
77222;SDS011;66218;48.928;9.140;2023-04-10T06:25:06;7.18;;;3.97;;
77222;SDS011;66218;48.928;9.140;2023-04-10T06:27:32;6.80;;;3.25;;
77222;SDS011;66218;48.928;9.140;2023-04-10T06:29:59;6.55;;;3.92;;
77222;SDS011;66218;48.928;9.140;2023-04-10T06:32:24;9.15;;;3.25;;
77222;SDS011;66218;48.928;9.140;2023-04-10T06:34:50;6.95;;;3.53;;
77222;SDS011;66218;48.928;9.140;2023-04-10T06:37:15;5.18;;;3.30;;
77222;SDS011;66218;48.928;9.140;2023-04-10T06:39:40;7.65;;;3.42;;
77222;SDS011;66218;48.928;9.140;2023-04-10T06:42:06;9.20;;;3.50;;
77222;SDS011;66218;48.928;9.140;2023-04-10T06:44:31;5.85;;;2.85;;
77222;SDS011;66218;48.928;9.140;2023-04-10T06:46:56;8.68;;;3.85;;
77222;SDS011;66218;48.928;9.140;2023-04-10T06:49:22;7.53;;;3.30;;
77222;SDS011;66218;48.928;9.140;2023-04-10T06:51:48;7.20;;;3.63;;
77222;SDS011;66218;48.928;9.140;2023-04-10T06:54:13;9.20;;;4.15;;
77222;SDS011;66218;48.928;9.140;2023-04-10T06:56:38;6.97;;;4.18;;
77222;SDS011;66218;48.928;9.140;2023-04-10T06:59:04;7.05;;;3.10;;
77222;SDS011;66218;48.928;9.140;2023-04-10T07:01:30;6.55;;;3.42;;
77222;SDS011;66218;48.928;9.140;2023-04-10T07:03:55;6.38;;;2.90;;
77222;SDS011;66218;48.928;9.140;2023-04-10T07:06:20;8.93;;;4.32;;
77222;SDS011;66218;48.928;9.140;2023-04-10T07:08:49;6.13;;;3.60;;
77222;SDS011;66218;48.928;9.140;2023-04-10T07:11:14;8.80;;;2.95;;
77222;SDS011;66218;48.928;9.140;2023-04-10T07:13:40;3.53;;;2.35;;
77222;SDS011;66218;48.928;9.140;2023-04-10T07:16:05;6.30;;;2.60;;
77222;SDS011;66218;48.928;9.140;2023-04-10T07:18:32;9.35;;;2.45;;
77222;SDS011;66218;48.928;9.140;2023-04-10T07:20:59;4.65;;;2.03;;
77222;SDS011;66218;48.928;9.140;2023-04-10T07:23:27;8.25;;;3.22;;
77222;SDS011;66218;48.928;9.140;2023-04-10T07:25:52;4.38;;;2.35;;
77222;SDS011;66218;48.928;9.140;2023-04-10T07:28:17;4.22;;;1.80;;
77222;SDS011;66218;48.928;9.140;2023-04-10T07:30:42;6.30;;;2.35;;
77222;SDS011;66218;48.928;9.140;2023-04-10T07:33:08;4.47;;;2.15;;
77222;SDS011;66218;48.928;9.140;2023-04-10T07:35:33;6.57;;;2.88;;
77222;SDS011;66218;48.928;9.140;2023-04-10T07:37:58;3.22;;;1.65;;
77222;SDS011;66218;48.928;9.140;2023-04-10T07:40:25;3.88;;;2.03;;
77222;SDS011;66218;48.928;9.140;2023-04-10T07:42:50;5.32;;;2.58;;
77222;SDS011;66218;48.928;9.140;2023-04-10T07:45:15;5.22;;;1.77;;
77222;SDS011;66218;48.928;9.140;2023-04-10T07:47:41;5.32;;;1.90;;
77222;SDS011;66218;48.928;9.140;2023-04-10T07:50:06;5.25;;;1.88;;
77222;SDS011;66218;48.928;9.140;2023-04-10T07:52:32;4.63;;;2.33;;
77222;SDS011;66218;48.928;9.140;2023-04-10T07:55:00;4.10;;;2.30;;
77222;SDS011;66218;48.928;9.140;2023-04-10T07:57:26;4.22;;;2.17;;
77222;SDS011;66218;48.928;9.140;2023-04-10T07:59:51;4.80;;;2.25;;
77222;SDS011;66218;48.928;9.140;2023-04-10T08:02:16;5.60;;;2.38;;
77222;SDS011;66218;48.928;9.140;2023-04-10T08:04:42;6.10;;;2.53;;
77222;SDS011;66218;48.928;9.140;2023-04-10T08:07:07;4.28;;;2.10;;
77222;SDS011;66218;48.928;9.140;2023-04-10T08:09:32;5.85;;;2.22;;
77222;SDS011;66218;48.928;9.140;2023-04-10T08:11:58;3.67;;;1.65;;
77222;SDS011;66218;48.928;9.140;2023-04-10T08:14:23;5.00;;;2.20;;
77222;SDS011;66218;48.928;9.140;2023-04-10T08:16:48;3.80;;;2.08;;
77222;SDS011;66218;48.928;9.140;2023-04-10T08:19:13;3.38;;;1.55;;
77222;SDS011;66218;48.928;9.140;2023-04-10T08:21:39;5.13;;;2.33;;
77222;SDS011;66218;48.928;9.140;2023-04-10T08:24:04;3.03;;;1.88;;
77222;SDS011;66218;48.928;9.140;2023-04-10T08:26:30;4.30;;;1.92;;
77222;SDS011;66218;48.928;9.140;2023-04-10T08:28:56;6.28;;;2.78;;
77222;SDS011;66218;48.928;9.140;2023-04-10T08:31:22;4.13;;;2.05;;
77222;SDS011;66218;48.928;9.140;2023-04-10T08:36:14;3.28;;;2.00;;
77222;SDS011;66218;48.928;9.140;2023-04-10T08:38:40;6.72;;;2.80;;
77222;SDS011;66218;48.928;9.140;2023-04-10T08:41:08;2.95;;;1.42;;
77222;SDS011;66218;48.928;9.140;2023-04-10T08:43:34;5.40;;;2.08;;
77222;SDS011;66218;48.928;9.140;2023-04-10T08:46:00;4.57;;;1.95;;
77222;SDS011;66218;48.928;9.140;2023-04-10T08:48:28;5.50;;;2.50;;
77222;SDS011;66218;48.928;9.140;2023-04-10T08:50:59;3.58;;;1.52;;
77222;SDS011;66218;48.928;9.140;2023-04-10T08:53:27;3.22;;;2.33;;
77222;SDS011;66218;48.928;9.140;2023-04-10T08:55:55;7.47;;;2.65;;
77222;SDS011;66218;48.928;9.140;2023-04-10T08:58:21;5.10;;;2.10;;
77222;SDS011;66218;48.928;9.140;2023-04-10T09:00:48;4.97;;;2.30;;
77222;SDS011;66218;48.928;9.140;2023-04-10T09:03:15;5.30;;;2.70;;
77222;SDS011;66218;48.928;9.140;2023-04-10T09:05:40;4.32;;;2.47;;
77222;SDS011;66218;48.928;9.140;2023-04-10T09:08:06;4.10;;;1.63;;
77222;SDS011;66218;48.928;9.140;2023-04-10T09:10:32;5.07;;;2.28;;
77222;SDS011;66218;48.928;9.140;2023-04-10T09:12:57;4.80;;;2.03;;
77222;SDS011;66218;48.928;9.140;2023-04-10T09:15:22;4.38;;;2.53;;
77222;SDS011;66218;48.928;9.140;2023-04-10T09:18:00;3.78;;;2.22;;
77222;SDS011;66218;48.928;9.140;2023-04-10T09:22:54;3.53;;;1.75;;
77222;SDS011;66218;48.928;9.140;2023-04-10T09:25:35;3.92;;;2.40;;
77222;SDS011;66218;48.928;9.140;2023-04-10T09:28:03;4.82;;;2.03;;
77222;SDS011;66218;48.928;9.140;2023-04-10T09:30:40;5.78;;;2.20;;
77222;SDS011;66218;48.928;9.140;2023-04-10T09:33:20;5.53;;;2.08;;
77222;SDS011;66218;48.928;9.140;2023-04-10T09:35:46;3.97;;;2.10;;
77222;SDS011;66218;48.928;9.140;2023-04-10T09:38:21;3.75;;;2.25;;
77222;SDS011;66218;48.928;9.140;2023-04-10T09:40:47;9.52;;;2.42;;
77222;SDS011;66218;48.928;9.140;2023-04-10T09:45:49;3.63;;;1.90;;
77222;SDS011;66218;48.928;9.140;2023-04-10T09:48:19;3.15;;;1.60;;
77222;SDS011;66218;48.928;9.140;2023-04-10T09:53:12;4.45;;;1.85;;
77222;SDS011;66218;48.928;9.140;2023-04-10T09:55:43;4.15;;;1.90;;
77222;SDS011;66218;48.928;9.140;2023-04-10T09:58:08;3.38;;;1.67;;
77222;SDS011;66218;48.928;9.140;2023-04-10T10:00:38;4.55;;;1.60;;
77222;SDS011;66218;48.928;9.140;2023-04-10T10:03:07;5.05;;;1.80;;
77222;SDS011;66218;48.928;9.140;2023-04-10T10:05:38;3.38;;;1.70;;
77222;SDS011;66218;48.928;9.140;2023-04-10T10:08:05;1.98;;;1.05;;
77222;SDS011;66218;48.928;9.140;2023-04-10T10:10:32;2.58;;;1.25;;
77222;SDS011;66218;48.928;9.140;2023-04-10T10:13:01;2.50;;;1.45;;
77222;SDS011;66218;48.928;9.140;2023-04-10T10:20:51;2.10;;;1.17;;
77222;SDS011;66218;48.928;9.140;2023-04-10T10:23:17;3.47;;;1.60;;
77222;SDS011;66218;48.928;9.140;2023-04-10T10:25:43;2.95;;;1.40;;
77222;SDS011;66218;48.928;9.140;2023-04-10T10:30:36;2.30;;;1.17;;
77222;SDS011;66218;48.928;9.140;2023-04-10T10:33:04;2.17;;;1.23;;
77222;SDS011;66218;48.928;9.140;2023-04-10T10:35:31;2.63;;;1.27;;
77222;SDS011;66218;48.928;9.140;2023-04-10T10:37:58;3.38;;;1.63;;
77222;SDS011;66218;48.928;9.140;2023-04-10T10:40:28;2.38;;;1.33;;
77222;SDS011;66218;48.928;9.140;2023-04-10T10:45:51;2.83;;;1.30;;
77222;SDS011;66218;48.928;9.140;2023-04-10T10:48:23;2.30;;;1.08;;
77222;SDS011;66218;48.928;9.140;2023-04-10T10:50:55;2.13;;;0.98;;
77222;SDS011;66218;48.928;9.140;2023-04-10T10:58:45;2.25;;;1.30;;
77222;SDS011;66218;48.928;9.140;2023-04-10T11:01:12;3.20;;;1.40;;
77222;SDS011;66218;48.928;9.140;2023-04-10T11:03:37;2.33;;;1.30;;
77222;SDS011;66218;48.928;9.140;2023-04-10T11:06:07;3.38;;;1.35;;
77222;SDS011;66218;48.928;9.140;2023-04-10T11:08:37;3.67;;;1.85;;
77222;SDS011;66218;48.928;9.140;2023-04-10T11:11:08;2.28;;;1.10;;
77222;SDS011;66218;48.928;9.140;2023-04-10T11:13:36;2.65;;;1.30;;
77222;SDS011;66218;48.928;9.140;2023-04-10T11:16:03;3.33;;;1.55;;
77222;SDS011;66218;48.928;9.140;2023-04-10T11:19:35;3.17;;;1.13;;
77222;SDS011;66218;48.928;9.140;2023-04-10T11:21:29;2.38;;;1.10;;
77222;SDS011;66218;48.928;9.140;2023-04-10T11:31:42;2.03;;;1.20;;
77222;SDS011;66218;48.928;9.140;2023-04-10T11:34:09;2.15;;;0.90;;
77222;SDS011;66218;48.928;9.140;2023-04-10T11:36:42;1.52;;;0.90;;
77222;SDS011;66218;48.928;9.140;2023-04-10T11:39:09;1.55;;;0.93;;
77222;SDS011;66218;48.928;9.140;2023-04-10T11:41:40;1.25;;;0.80;;
77222;SDS011;66218;48.928;9.140;2023-04-10T11:44:08;1.60;;;0.88;;
77222;SDS011;66218;48.928;9.140;2023-04-10T11:46:42;2.20;;;1.30;;
77222;SDS011;66218;48.928;9.140;2023-04-10T11:49:11;1.60;;;1.00;;
77222;SDS011;66218;48.928;9.140;2023-04-10T11:51:43;5.80;;;1.40;;
77222;SDS011;66218;48.928;9.140;2023-04-10T11:54:20;1.80;;;1.27;;
77222;SDS011;66218;48.928;9.140;2023-04-10T11:59:28;2.20;;;0.95;;
77222;SDS011;66218;48.928;9.140;2023-04-10T12:02:05;1.52;;;0.77;;
77222;SDS011;66218;48.928;9.140;2023-04-10T12:04:32;1.25;;;0.90;;
77222;SDS011;66218;48.928;9.140;2023-04-10T12:07:00;2.45;;;1.00;;
77222;SDS011;66218;48.928;9.140;2023-04-10T12:09:26;2.22;;;1.00;;
77222;SDS011;66218;48.928;9.140;2023-04-10T12:11:58;0.95;;;0.63;;
77222;SDS011;66218;48.928;9.140;2023-04-10T12:14:28;1.33;;;0.85;;
77222;SDS011;66218;48.928;9.140;2023-04-10T12:16:54;2.40;;;1.02;;
77222;SDS011;66218;48.928;9.140;2023-04-10T12:19:20;1.48;;;0.93;;
77222;SDS011;66218;48.928;9.140;2023-04-10T12:21:47;1.63;;;0.95;;
77222;SDS011;66218;48.928;9.140;2023-04-10T12:24:38;1.15;;;0.52;;
77222;SDS011;66218;48.928;9.140;2023-04-10T12:27:05;1.67;;;0.70;;
77222;SDS011;66218;48.928;9.140;2023-04-10T12:29:30;1.63;;;0.75;;
77222;SDS011;66218;48.928;9.140;2023-04-10T12:31:56;0.70;;;0.60;;
77222;SDS011;66218;48.928;9.140;2023-04-10T12:34:21;0.88;;;0.60;;
77222;SDS011;66218;48.928;9.140;2023-04-10T12:36:50;1.35;;;0.60;;
77222;SDS011;66218;48.928;9.140;2023-04-10T12:39:21;1.20;;;0.90;;
77222;SDS011;66218;48.928;9.140;2023-04-10T12:41:48;2.63;;;0.77;;
77222;SDS011;66218;48.928;9.140;2023-04-10T12:44:13;0.93;;;0.57;;
77222;SDS011;66218;48.928;9.140;2023-04-10T12:46:39;1.63;;;0.88;;
77222;SDS011;66218;48.928;9.140;2023-04-10T12:51:55;1.55;;;0.70;;
77222;SDS011;66218;48.928;9.140;2023-04-10T12:56:59;1.35;;;0.85;;
77222;SDS011;66218;48.928;9.140;2023-04-10T12:59:25;0.70;;;0.40;;
77222;SDS011;66218;48.928;9.140;2023-04-10T13:01:52;0.60;;;0.60;;
77222;SDS011;66218;48.928;9.140;2023-04-10T13:06:43;1.03;;;0.73;;
77222;SDS011;66218;48.928;9.140;2023-04-10T13:09:09;1.40;;;0.60;;
77222;SDS011;66218;48.928;9.140;2023-04-10T13:11:36;0.63;;;0.35;;
77222;SDS011;66218;48.928;9.140;2023-04-10T13:14:01;0.73;;;0.50;;
77222;SDS011;66218;48.928;9.140;2023-04-10T13:16:27;0.60;;;0.40;;
77222;SDS011;66218;48.928;9.140;2023-04-10T13:18:52;0.45;;;0.30;;
77222;SDS011;66218;48.928;9.140;2023-04-10T13:21:18;1.15;;;0.45;;
77222;SDS011;66218;48.928;9.140;2023-04-10T13:23:47;1.27;;;0.52;;
77222;SDS011;66218;48.928;9.140;2023-04-10T13:26:12;0.75;;;0.63;;
77222;SDS011;66218;48.928;9.140;2023-04-10T13:28:38;0.50;;;0.35;;
77222;SDS011;66218;48.928;9.140;2023-04-10T13:31:03;1.08;;;0.55;;
77222;SDS011;66218;48.928;9.140;2023-04-10T13:35:54;0.55;;;0.50;;
77222;SDS011;66218;48.928;9.140;2023-04-10T13:38:19;0.68;;;0.47;;
77222;SDS011;66218;48.928;9.140;2023-04-10T13:43:10;0.55;;;0.50;;
77222;SDS011;66218;48.928;9.140;2023-04-10T13:45:35;0.85;;;0.57;;
77222;SDS011;66218;48.928;9.140;2023-04-10T13:50:26;1.47;;;0.80;;
77222;SDS011;66218;48.928;9.140;2023-04-10T13:52:51;0.40;;;0.40;;
77222;SDS011;66218;48.928;9.140;2023-04-10T13:55:16;0.95;;;0.60;;
77222;SDS011;66218;48.928;9.140;2023-04-10T13:57:42;1.30;;;0.68;;
77222;SDS011;66218;48.928;9.140;2023-04-10T14:00:07;1.00;;;0.55;;
77222;SDS011;66218;48.928;9.140;2023-04-10T14:02:34;0.82;;;0.40;;
77222;SDS011;66218;48.928;9.140;2023-04-10T14:04:59;0.73;;;0.50;;
77222;SDS011;66218;48.928;9.140;2023-04-10T14:07:25;1.30;;;0.82;;
77222;SDS011;66218;48.928;9.140;2023-04-10T14:12:15;0.67;;;0.53;;
77222;SDS011;66218;48.928;9.140;2023-04-10T14:14:41;0.60;;;0.60;;
77222;SDS011;66218;48.928;9.140;2023-04-10T14:17:07;0.77;;;0.40;;
77222;SDS011;66218;48.928;9.140;2023-04-10T14:19:33;1.08;;;0.57;;
77222;SDS011;66218;48.928;9.140;2023-04-10T14:21:59;1.00;;;0.60;;
77222;SDS011;66218;48.928;9.140;2023-04-10T14:26:50;1.40;;;0.60;;
77222;SDS011;66218;48.928;9.140;2023-04-10T14:29:17;1.63;;;0.70;;
77222;SDS011;66218;48.928;9.140;2023-04-10T14:34:08;1.07;;;0.50;;
77222;SDS011;66218;48.928;9.140;2023-04-10T14:38:58;2.27;;;0.70;;
77222;SDS011;66218;48.928;9.140;2023-04-10T14:41:23;1.50;;;0.50;;
77222;SDS011;66218;48.928;9.140;2023-04-10T14:43:49;1.05;;;0.50;;
77222;SDS011;66218;48.928;9.140;2023-04-10T14:46:14;0.93;;;0.70;;
77222;SDS011;66218;48.928;9.140;2023-04-10T14:48:40;1.08;;;0.52;;
77222;SDS011;66218;48.928;9.140;2023-04-10T14:51:06;2.42;;;0.95;;
77222;SDS011;66218;48.928;9.140;2023-04-10T14:53:36;1.73;;;0.90;;
77222;SDS011;66218;48.928;9.140;2023-04-10T14:56:07;1.38;;;0.70;;
77222;SDS011;66218;48.928;9.140;2023-04-10T14:58:34;1.38;;;0.68;;
77222;SDS011;66218;48.928;9.140;2023-04-10T15:00:59;1.65;;;0.80;;
77222;SDS011;66218;48.928;9.140;2023-04-10T15:03:25;1.27;;;0.63;;
77222;SDS011;66218;48.928;9.140;2023-04-10T15:05:57;1.60;;;0.70;;
77222;SDS011;66218;48.928;9.140;2023-04-10T15:08:22;1.92;;;0.80;;
77222;SDS011;66218;48.928;9.140;2023-04-10T15:10:49;1.33;;;0.70;;
77222;SDS011;66218;48.928;9.140;2023-04-10T15:13:16;1.95;;;1.10;;
77222;SDS011;66218;48.928;9.140;2023-04-10T15:15:43;1.33;;;0.80;;
77222;SDS011;66218;48.928;9.140;2023-04-10T15:20:34;1.98;;;0.85;;
77222;SDS011;66218;48.928;9.140;2023-04-10T15:22:59;1.38;;;0.65;;
77222;SDS011;66218;48.928;9.140;2023-04-10T15:25:26;0.88;;;0.70;;
77222;SDS011;66218;48.928;9.140;2023-04-10T15:27:53;1.42;;;0.73;;
77222;SDS011;66218;48.928;9.140;2023-04-10T15:30:19;1.05;;;0.77;;
77222;SDS011;66218;48.928;9.140;2023-04-10T15:32:44;2.22;;;1.00;;
77222;SDS011;66218;48.928;9.140;2023-04-10T15:35:09;0.93;;;0.73;;
77222;SDS011;66218;48.928;9.140;2023-04-10T15:37:35;1.45;;;0.77;;
77222;SDS011;66218;48.928;9.140;2023-04-10T15:40:01;1.58;;;0.82;;
77222;SDS011;66218;48.928;9.140;2023-04-10T15:42:28;1.77;;;0.73;;
77222;SDS011;66218;48.928;9.140;2023-04-10T15:44:53;2.38;;;0.50;;
77222;SDS011;66218;48.928;9.140;2023-04-10T15:47:19;1.20;;;0.75;;
77222;SDS011;66218;48.928;9.140;2023-04-10T15:49:44;0.95;;;0.77;;
77222;SDS011;66218;48.928;9.140;2023-04-10T15:52:09;1.02;;;0.60;;
77222;SDS011;66218;48.928;9.140;2023-04-10T15:54:36;1.08;;;0.60;;
77222;SDS011;66218;48.928;9.140;2023-04-10T15:57:03;1.58;;;0.73;;
77222;SDS011;66218;48.928;9.140;2023-04-10T15:59:28;1.95;;;0.52;;
77222;SDS011;66218;48.928;9.140;2023-04-10T16:01:53;1.23;;;0.60;;
77222;SDS011;66218;48.928;9.140;2023-04-10T16:04:19;0.82;;;0.47;;